Upper Saddle River, New Jersey
Current Conditions -  °F | °C
As of 6:51 AM on Monday 22 Dec 2014 (Local Time) from KTEB Reporting Station
Overcast Overcast  
Wind Chill: 30°   Ceiling: 1000
Heat Index: 35°   Visibility: 8mi
Dew Point: 31°   Wind: 6mph
Humidity: 85%   Direction: 10°N
Pressure: 30.31"   Gusts: NA
Location:  41.0459°N, 74.097°W
Report Text: KTEB 221151Z 01005KT 8SM OVC010 02/M01 A3031 RMK AO2 SLP264 60000 T00171006 10017 20017 58004
Loading
Personal Weather Stations






























Interactive Weather Map New forecast layout! Learn more

10-Day Weather Forecast

Advertisements
Track Severe Weather on mobile